Time;durP1;ratioP1;P1;durP2;ratioP2;P2;SDS_P1;SDS_P2;PMS_P1;PMS_P2;Temp;Humidity;BMP_temperature;BMP_pressure;BME280_temperature;BME280_humidity;BME280_pressure;Samples;Min_cycle;Max_cycle;Signal;HPM_P1;HPM_P2
2023/08/17 00:00:48;;;;;;;;;14.25;14.25;;;;;-143.47;100.00;63865.75;2090809;28;46229;-65
2023/08/17 00:01:48;;;;;;;;;13.75;12.00;;;;;-143.47;100.00;63865.75;2097828;28;46694;-64
2023/08/17 00:02:48;;;;;;;;;13.25;13.25;;;;;-143.47;100.00;63865.75;2096978;28;46940;-63
2023/08/17 00:03:49;;;;;;;;;11.00;11.00;;;;;-143.47;100.00;63865.75;2096729;28;46680;-64
2023/08/17 00:04:49;;;;;;;;;11.00;9.25;;;;;-143.47;100.00;63865.75;2097277;28;47026;-64
2023/08/17 00:05:49;;;;;;;;;11.00;11.00;;;;;-143.47;100.00;63865.75;2097160;28;46280;-62
2023/08/17 00:06:50;;;;;;;;;11.00;11.00;;;;;-143.47;100.00;63865.75;2097282;28;46326;-64
2023/08/17 00:07:50;;;;;;;;;13.00;12.00;;;;;-143.47;100.00;63865.75;2096961;28;46824;-64
2023/08/17 00:08:50;;;;;;;;;14.25;12.25;;;;;-143.47;100.00;63865.75;2097871;28;46822;-64
2023/08/17 00:09:51;;;;;;;;;11.75;11.75;;;;;-143.47;100.00;63865.75;2097590;28;46609;-63
2023/08/17 00:10:51;;;;;;;;;9.75;9.75;;;;;-143.47;100.00;63865.75;2097035;28;46735;-63
2023/08/17 00:11:51;;;;;;;;;14.25;12.00;;;;;-143.47;100.00;63865.75;2096990;28;46890;-63
2023/08/17 00:12:52;;;;;;;;;11.50;10.25;;;;;-143.47;100.00;63865.75;2089210;28;46500;-63
2023/08/17 00:13:52;;;;;;;;;8.25;8.25;;;;;-143.47;100.00;63865.75;2088605;28;46279;-63
2023/08/17 00:14:52;;;;;;;;;9.50;9.50;;;;;-143.47;100.00;63865.75;2089076;28;46498;-64
2023/08/17 00:15:53;;;;;;;;;11.50;11.50;;;;;-143.47;100.00;63865.75;2088713;28;46469;-64
2023/08/17 00:16:53;;;;;;;;;12.75;11.75;;;;;-143.47;100.00;63865.75;2088837;28;46572;-64
2023/08/17 00:17:53;;;;;;;;;11.75;11.75;;;;;-143.47;100.00;63865.75;2110285;27;46846;-63
2023/08/17 00:18:54;;;;;;;;;13.50;11.00;;;;;-143.47;100.00;63865.75;2108975;27;46016;-64
2023/08/17 00:19:54;;;;;;;;;11.00;11.00;;;;;-143.47;100.00;63865.75;2089004;28;46634;-63
2023/08/17 00:20:55;;;;;;;;;11.25;10.25;;;;;-143.47;100.00;63865.75;2096193;28;46712;-63
2023/08/17 00:21:55;;;;;;;;;10.75;10.00;;;;;-143.47;100.00;63865.75;2091840;28;46118;-64
2023/08/17 00:22:55;;;;;;;;;9.00;9.00;;;;;-143.47;100.00;63865.75;2096992;28;46231;-63
2023/08/17 00:23:56;;;;;;;;;12.00;12.00;;;;;-143.47;100.00;63865.75;2101656;28;46672;-64
2023/08/17 00:24:56;;;;;;;;;10.75;10.75;;;;;-143.47;100.00;63865.75;2100853;28;46750;-63
2023/08/17 00:25:57;;;;;;;;;9.00;9.00;;;;;-143.47;100.00;63865.75;2105288;27;46635;-63
2023/08/17 00:26:57;;;;;;;;;10.00;10.00;;;;;-143.47;100.00;63865.75;2098623;27;46679;-64
2023/08/17 00:27:57;;;;;;;;;11.33;10.67;;;;;-143.47;100.00;63865.75;2098525;28;46138;-64
2023/08/17 00:28:58;;;;;;;;;10.50;10.50;;;;;-143.47;100.00;63865.75;2101041;27;46287;-63
2023/08/17 00:29:58;;;;;;;;;11.25;11.25;;;;;-143.47;100.00;63865.75;2102210;28;46142;-63
2023/08/17 00:31:00;;;;;;;;;11.50;11.50;;;;;-143.47;100.00;63865.75;2097249;28;45945;-63
2023/08/17 00:32:01;;;;;;;;;11.40;10.00;;;;;-143.47;100.00;63865.75;2102445;27;46391;-64
2023/08/17 00:33:02;;;;;;;;;9.80;9.40;;;;;-143.47;100.00;63865.75;2100862;28;46356;-64
2023/08/17 00:34:02;;;;;;;;;10.00;9.25;;;;;-143.47;100.00;63865.75;2098652;27;46492;-63
2023/08/17 00:35:03;;;;;;;;;10.25;9.50;;;;;-143.47;100.00;63865.75;2104254;27;47101;-63
2023/08/17 00:36:04;;;;;;;;;12.00;12.00;;;;;-143.47;100.00;63865.75;2099135;28;45481;-64
2023/08/17 00:37:04;;;;;;;;;9.25;9.00;;;;;-143.47;100.00;63865.75;2100293;27;46586;-64
2023/08/17 00:38:04;;;;;;;;;9.00;9.00;;;;;-143.47;100.00;63865.75;2099054;28;46793;-64
2023/08/17 00:39:05;;;;;;;;;9.50;9.50;;;;;-143.47;100.00;63865.75;2097306;28;46380;-64
2023/08/17 00:40:06;;;;;;;;;9.75;9.75;;;;;-143.47;100.00;63865.75;2099935;28;46863;-64
2023/08/17 00:41:06;;;;;;;;;13.00;13.00;;;;;-143.47;100.00;63865.75;2103085;28;46426;-63
2023/08/17 00:42:07;;;;;;;;;12.50;12.25;;;;;-143.47;100.00;63865.75;2096486;28;46543;-64
2023/08/17 00:43:08;;;;;;;;;9.00;9.00;;;;;-143.47;100.00;63865.75;2103960;28;47096;-64
2023/08/17 00:44:08;;;;;;;;;9.00;9.00;;;;;-143.47;100.00;63865.75;2105478;27;46690;-64
2023/08/17 00:45:09;;;;;;;;;10.75;8.50;;;;;-143.47;100.00;63865.75;2100696;27;47009;-64
2023/08/17 00:46:11;;;;;;;;;10.75;10.75;;;;;-143.47;100.00;63865.75;2096828;28;46898;-64
2023/08/17 00:47:12;;;;;;;;;9.20;9.20;;;;;-143.47;100.00;63865.75;2097941;28;46445;-64
2023/08/17 00:48:12;;;;;;;;;9.00;8.50;;;;;-143.47;100.00;63865.75;2096700;27;46531;-64
2023/08/17 00:49:13;;;;;;;;;12.00;11.50;;;;;-143.47;100.00;63865.75;2095496;28;46534;-64
2023/08/17 00:50:14;;;;;;;;;9.50;9.50;;;;;-143.47;100.00;63865.75;2088856;28;46404;-64
2023/08/17 00:51:15;;;;;;;;;10.20;10.20;;;;;-143.47;100.00;63865.75;2093914;28;46474;-64
2023/08/17 00:52:15;;;;;;;;;8.50;8.50;;;;;-143.47;100.00;63865.75;2097016;28;46304;-64
2023/08/17 00:53:17;;;;;;;;;11.00;10.00;;;;;-143.47;100.00;63865.75;2097390;28;45558;-63
2023/08/17 00:54:24;;;;;;;;;8.00;8.00;;;;;-143.47;100.00;63865.75;2097328;28;46618;-63
2023/08/17 00:55:25;;;;;;;;;10.00;10.00;;;;;-143.47;100.00;63865.75;2097117;28;46940;-63
2023/08/17 00:56:26;;;;;;;;;9.00;9.00;;;;;-143.47;100.00;63865.75;2096913;28;46053;-64
2023/08/17 00:57:27;;;;;;;;;10.00;9.20;;;;;-143.47;100.00;63865.75;2096936;28;46771;-65
2023/08/17 00:58:28;;;;;;;;;10.75;10.75;;;;;-143.47;100.00;63865.75;2097125;28;46611;-64
2023/08/17 00:59:28;;;;;;;;;11.40;11.40;;;;;-143.47;100.00;63865.75;2097060;28;46317;-64
2023/08/17 01:00:28;;;;;;;;;10.00;10.00;;;;;-143.47;100.00;63865.75;2096939;28;46349;-63
2023/08/17 01:01:30;;;;;;;;;10.25;10.25;;;;;-143.47;100.00;63865.75;2096873;28;45947;-64
2023/08/17 01:02:31;;;;;;;;;12.40;10.80;;;;;-143.47;100.00;63865.75;2097000;28;46485;-64
2023/08/17 01:03:32;;;;;;;;;11.20;10.40;;;;;-143.47;100.00;63865.75;2096848;28;46610;-64
2023/08/17 01:04:32;;;;;;;;;6.75;6.75;;;;;-143.47;100.00;63865.75;2096790;28;46627;-64
2023/08/17 01:05:32;;;;;;;;;10.50;10.50;;;;;-143.47;100.00;63865.75;2097584;28;46213;-64
2023/08/17 01:06:33;;;;;;;;;10.50;10.50;;;;;-143.47;100.00;63865.75;2100163;28;46157;-64
2023/08/17 01:07:33;;;;;;;;;9.75;9.75;;;;;-143.47;100.00;63865.75;2094448;27;46210;-64
2023/08/17 01:08:35;;;;;;;;;10.00;9.00;;;;;-143.47;100.00;63865.75;2088695;28;46444;-64
2023/08/17 01:09:36;;;;;;;;;11.20;11.00;;;;;-143.47;100.00;63865.75;2095606;28;46215;-65
2023/08/17 01:11:01;;;;;;;;;11.00;10.50;;;;;-143.47;100.00;63865.75;2096089;28;46562;-64
2023/08/17 01:12:20;;;;;;;;;9.75;9.75;;;;;-143.47;100.00;63865.75;2104131;28;46404;-65
2023/08/17 01:13:52;;;;;;;;;10.40;10.40;;;;;-143.47;100.00;63865.75;2104544;28;46662;-63
2023/08/17 01:15:12;;;;;;;;;12.20;12.20;;;;;-143.47;100.00;63865.75;2071143;28;46752;-62
2023/08/17 01:16:16;;;;;;;;;10.40;10.00;;;;;-143.47;100.00;63865.75;2071217;28;46844;-63
2023/08/17 01:17:29;;;;;;;;;11.25;10.00;;;;;-143.47;100.00;63865.75;2079533;28;46611;-64
2023/08/17 01:18:33;;;;;;;;;10.50;10.50;;;;;-143.47;100.00;63865.75;2087086;28;46704;-63
2023/08/17 01:19:33;;;;;;;;;12.60;12.20;;;;;-143.47;100.00;63865.75;2079387;28;47122;-64
2023/08/17 01:20:34;;;;;;;;;10.50;10.00;;;;;-143.47;100.00;63865.75;2074576;28;47013;-64
2023/08/17 01:21:41;;;;;;;;;12.25;11.00;;;;;-143.47;100.00;63865.75;2079003;28;46696;-64
2023/08/17 01:22:44;;;;;;;;;13.40;12.60;;;;;-143.47;100.00;63865.75;2079198;28;46405;-64
2023/08/17 01:23:46;;;;;;;;;12.40;12.40;;;;;-143.47;100.00;63865.75;2079227;28;46640;-64
2023/08/17 01:24:46;;;;;;;;;13.00;13.00;;;;;-143.47;100.00;63865.75;2085611;28;46541;-63
2023/08/17 01:25:46;;;;;;;;;10.75;10.75;;;;;-143.47;100.00;63865.75;2086753;28;46372;-63
2023/08/17 01:26:47;;;;;;;;;12.00;12.00;;;;;-143.47;100.00;63865.75;2087506;28;46577;-63
2023/08/17 01:27:47;;;;;;;;;12.25;12.25;;;;;-143.47;100.00;63865.75;2087410;28;46350;-64
2023/08/17 01:28:47;;;;;;;;;11.50;11.50;;;;;-143.47;100.00;63865.75;2095573;28;46783;-64
2023/08/17 01:29:48;;;;;;;;;12.50;12.50;;;;;-143.47;100.00;63865.75;2096089;28;46460;-63
2023/08/17 01:30:52;;;;;;;;;10.50;10.50;;;;;-143.47;100.00;63865.75;2078876;28;46312;-64
2023/08/17 01:32:09;;;;;;;;;11.80;11.80;;;;;-143.47;100.00;63865.75;2079752;28;46859;-63
2023/08/17 01:33:16;;;;;;;;;10.60;10.60;;;;;-143.47;100.00;63865.75;2086921;28;46803;-63
2023/08/17 01:34:23;;;;;;;;;13.60;13.60;;;;;-143.47;100.00;63865.75;2095984;28;46300;-64
2023/08/17 01:35:54;;;;;;;;;12.00;12.00;;;;;-143.47;100.00;63865.75;2094811;28;45858;-64
2023/08/17 01:36:59;;;;;;;;;14.20;13.00;;;;;-143.47;100.00;63865.75;2087360;28;46750;-63
2023/08/17 01:38:04;;;;;;;;;12.80;12.80;;;;;-143.47;100.00;63865.75;2085740;28;46530;-63
2023/08/17 01:39:07;;;;;;;;;12.80;12.80;;;;;-143.47;100.00;63865.75;2087257;28;46678;-64
2023/08/17 01:40:09;;;;;;;;;11.00;10.40;;;;;-143.47;100.00;63865.75;2087459;28;46308;-64
2023/08/17 01:41:15;;;;;;;;;11.00;11.00;;;;;-143.47;100.00;63865.75;2087239;28;46652;-64
2023/08/17 01:42:16;;;;;;;;;13.80;13.80;;;;;-143.47;100.00;63865.75;2085733;28;46932;-64
2023/08/17 01:43:18;;;;;;;;;11.20;11.20;;;;;-143.47;100.00;63865.75;2087126;28;46370;-64
2023/08/17 01:44:18;;;;;;;;;12.00;10.80;;;;;-143.47;100.00;63865.75;2086535;28;46514;-64
2023/08/17 01:45:18;;;;;;;;;12.00;10.50;;;;;-143.47;100.00;63865.75;2087087;28;46842;-64
2023/08/17 01:46:19;;;;;;;;;9.50;9.50;;;;;-143.47;100.00;63865.75;2087087;28;46389;-64
2023/08/17 01:47:22;;;;;;;;;27.75;27.25;;;;;-143.47;100.00;63865.75;2087628;28;46514;-65
2023/08/17 01:48:23;;;;;;;;;33.40;31.00;;;;;-143.47;100.00;63865.75;2086895;28;46408;-64
2023/08/17 01:49:23;;;;;;;;;49.75;41.75;;;;;-143.47;100.00;63865.75;2084207;28;45527;-63
2023/08/17 01:50:23;;;;;;;;;53.25;43.75;;;;;-143.47;100.00;63865.75;2079156;28;46171;-65
2023/08/17 01:51:25;;;;;;;;;44.25;36.75;;;;;-143.47;100.00;63865.75;2079416;28;46868;-65
2023/08/17 01:52:27;;;;;;;;;31.80;29.00;;;;;-143.47;100.00;63865.75;2087293;28;46778;-65
2023/08/17 01:53:28;;;;;;;;;25.20;23.80;;;;;-143.47;100.00;63865.75;2104989;27;46446;-64
2023/08/17 01:54:28;;;;;;;;;25.50;23.75;;;;;-143.47;100.00;63865.75;2104051;27;46312;-63
2023/08/17 01:55:28;;;;;;;;;25.00;22.50;;;;;-143.47;100.00;63865.75;2104485;27;46807;-64
2023/08/17 01:56:29;;;;;;;;;21.75;21.00;;;;;-143.47;100.00;63865.75;2095123;28;46538;-64
2023/08/17 01:57:29;;;;;;;;;17.50;17.25;;;;;-143.47;100.00;63865.75;2089775;28;46138;-64
2023/08/17 01:58:29;;;;;;;;;21.25;20.50;;;;;-143.47;100.00;63865.75;2104186;28;46747;-64
2023/08/17 01:59:30;;;;;;;;;13.50;13.50;;;;;-143.47;100.00;63865.75;2104188;28;46520;-64
2023/08/17 02:00:30;;;;;;;;;16.25;13.75;;;;;-143.47;100.00;63865.75;2104321;28;46631;-63
2023/08/17 02:01:30;;;;;;;;;17.50;17.50;;;;;-143.47;100.00;63865.75;2104515;28;46592;-64
2023/08/17 02:02:31;;;;;;;;;14.25;13.50;;;;;-143.47;100.00;63865.75;2104335;28;46547;-65
2023/08/17 02:03:31;;;;;;;;;16.50;15.50;;;;;-143.47;100.00;63865.75;2103932;28;46675;-65
2023/08/17 02:04:32;;;;;;;;;14.50;14.50;;;;;-143.47;100.00;63865.75;2105160;27;46447;-64
2023/08/17 02:05:32;;;;;;;;;15.00;13.75;;;;;-143.47;100.00;63865.75;2101233;28;46298;-64
2023/08/17 02:06:32;;;;;;;;;18.00;17.75;;;;;-143.47;100.00;63865.75;2095916;28;46174;-65
2023/08/17 02:07:33;;;;;;;;;14.00;14.00;;;;;-143.47;100.00;63865.75;2097265;28;46703;-64
2023/08/17 02:08:35;;;;;;;;;17.00;16.00;;;;;-143.47;100.00;63865.75;2097038;28;46613;-64
2023/08/17 02:09:35;;;;;;;;;14.60;14.60;;;;;-143.47;100.00;63865.75;2096437;28;46677;-65
2023/08/17 02:10:36;;;;;;;;;16.00;16.00;;;;;-143.47;100.00;63865.75;2096552;28;46624;-63
2023/08/17 02:11:36;;;;;;;;;13.40;13.20;;;;;-143.47;100.00;63865.75;2096679;28;46889;-65
2023/08/17 02:12:37;;;;;;;;;18.00;15.75;;;;;-143.47;100.00;63865.75;2087993;28;46720;-65
2023/08/17 02:13:37;;;;;;;;;13.25;13.25;;;;;-143.47;100.00;63865.75;2090527;28;46689;-64
2023/08/17 02:14:37;;;;;;;;;16.75;14.00;;;;;-143.47;100.00;63865.75;2096524;28;47081;-64
2023/08/17 02:15:39;;;;;;;;;14.25;14.25;;;;;-143.47;100.00;63865.75;2095743;28;46657;-62
2023/08/17 02:16:39;;;;;;;;;12.60;12.20;;;;;-143.47;100.00;63865.75;2095922;28;46476;-64
2023/08/17 02:17:40;;;;;;;;;16.00;16.00;;;;;-143.47;100.00;63865.75;2096615;28;46204;-63
2023/08/17 02:18:40;;;;;;;;;14.75;13.75;;;;;-143.47;100.00;63865.75;2090245;28;45294;-63
2023/08/17 02:19:41;;;;;;;;;12.75;12.75;;;;;-143.47;100.00;63865.75;2087727;28;46514;-63
2023/08/17 02:20:41;;;;;;;;;14.75;14.00;;;;;-143.47;100.00;63865.75;2093455;28;46913;-63
2023/08/17 02:21:41;;;;;;;;;14.75;13.50;;;;;-143.47;100.00;63865.75;2093291;28;46243;-63
2023/08/17 02:22:42;;;;;;;;;12.50;11.75;;;;;-143.47;100.00;63865.75;2094350;28;46551;-63
2023/08/17 02:23:42;;;;;;;;;16.25;13.25;;;;;-143.47;100.00;63865.75;2096330;28;46994;-63
2023/08/17 02:24:42;;;;;;;;;15.00;13.25;;;;;-143.47;100.00;63865.75;2097147;28;46647;-63
2023/08/17 02:25:43;;;;;;;;;13.75;13.75;;;;;-143.47;100.00;63865.75;2099768;27;46336;-63
2023/08/17 02:26:43;;;;;;;;;14.75;14.75;;;;;-143.47;100.00;63865.75;2099890;28;46225;-64
2023/08/17 02:27:43;;;;;;;;;14.25;14.25;;;;;-143.47;100.00;63865.75;2097106;28;46185;-64
2023/08/17 02:28:43;;;;;;;;;14.25;14.25;;;;;-143.47;100.00;63865.75;2099333;28;46856;-63
2023/08/17 02:29:44;;;;;;;;;15.50;15.25;;;;;-143.47;100.00;63865.75;2098470;28;46165;-63
2023/08/17 02:30:46;;;;;;;;;20.00;16.25;;;;;-143.47;100.00;63865.75;2098418;27;46199;-63
2023/08/17 02:31:46;;;;;;;;;14.60;14.40;;;;;-143.47;100.00;63865.75;2099641;28;46645;-63
2023/08/17 02:32:47;;;;;;;;;16.00;14.50;;;;;-143.47;100.00;63865.75;2097039;28;46526;-63
2023/08/17 02:33:47;;;;;;;;;14.00;14.00;;;;;-143.47;100.00;63865.75;2105171;27;46534;-64
2023/08/17 02:34:47;;;;;;;;;13.75;13.75;;;;;-143.47;100.00;63865.75;2104522;27;46513;-64
2023/08/17 02:35:51;;;;;;;;;13.25;13.25;;;;;-143.47;100.00;63865.75;2086467;28;46147;-64
2023/08/17 02:36:52;;;;;;;;;14.20;13.20;;;;;-143.47;100.00;63865.75;2090810;28;47113;-64
2023/08/17 02:37:52;;;;;;;;;12.00;12.00;;;;;-143.47;100.00;63865.75;2097636;28;46393;-64
2023/08/17 02:38:53;;;;;;;;;13.25;13.25;;;;;-143.47;100.00;63865.75;2096794;28;46519;-64
2023/08/17 02:39:53;;;;;;;;;12.75;12.00;;;;;-143.47;100.00;63865.75;2102271;27;46320;-64
2023/08/17 02:40:53;;;;;;;;;15.25;15.25;;;;;-143.47;100.00;63865.75;2096721;28;46188;-63
2023/08/17 02:41:54;;;;;;;;;13.75;13.75;;;;;-143.47;100.00;63865.75;2095392;28;47574;-65
2023/08/17 02:42:54;;;;;;;;;15.25;15.25;;;;;-143.47;100.00;63865.75;2100017;28;46509;-64
2023/08/17 02:43:54;;;;;;;;;11.00;11.00;;;;;-143.47;100.00;63865.75;2096519;28;46229;-64
2023/08/17 02:44:55;;;;;;;;;13.75;13.75;;;;;-143.47;100.00;63865.75;2096132;28;45239;-63
2023/08/17 02:45:55;;;;;;;;;14.25;14.25;;;;;-143.47;100.00;63865.75;2096305;28;46491;-65
2023/08/17 02:46:55;;;;;;;;;13.25;12.25;;;;;-143.47;100.00;63865.75;2096310;28;46307;-65
2023/08/17 02:47:56;;;;;;;;;14.75;14.50;;;;;-143.47;100.00;63865.75;2100017;28;46424;-65
2023/08/17 02:48:56;;;;;;;;;14.75;14.75;;;;;-143.47;100.00;63865.75;2085323;28;46803;-63
2023/08/17 02:49:56;;;;;;;;;15.25;15.00;;;;;-143.47;100.00;63865.75;2086186;28;46901;-63
2023/08/17 02:50:56;;;;;;;;;15.00;15.00;;;;;-143.47;100.00;63865.75;2096090;28;46345;-63
2023/08/17 02:51:57;;;;;;;;;16.25;15.00;;;;;-143.47;100.00;63865.75;2096303;28;45470;-62
2023/08/17 02:52:57;;;;;;;;;12.75;12.75;;;;;-143.47;100.00;63865.75;2095247;28;46634;-63
2023/08/17 02:53:57;;;;;;;;;15.00;14.00;;;;;-143.47;100.00;63865.75;2088332;28;46599;-64
2023/08/17 02:54:58;;;;;;;;;15.25;14.75;;;;;-143.47;100.00;63865.75;2089492;28;46276;-63
2023/08/17 02:55:58;;;;;;;;;15.00;13.50;;;;;-143.47;100.00;63865.75;2096312;28;46631;-63
2023/08/17 02:56:59;;;;;;;;;14.00;13.75;;;;;-143.47;100.00;63865.75;2096516;28;46541;-63
2023/08/17 02:57:59;;;;;;;;;14.20;13.20;;;;;-143.47;100.00;63865.75;2095734;28;46378;-63
2023/08/17 02:59:00;;;;;;;;;16.25;15.50;;;;;-143.47;100.00;63865.75;2096447;28;46334;-64
2023/08/17 03:00:00;;;;;;;;;15.00;15.00;;;;;-143.47;100.00;63865.75;2095446;28;45206;-63
2023/08/17 03:01:03;;;;;;;;;13.25;12.25;;;;;-143.47;100.00;63865.75;2095733;28;46120;-63
2023/08/17 03:02:03;;;;;;;;;14.80;14.80;;;;;-143.47;100.00;63865.75;2095518;28;46903;-64
2023/08/17 03:03:04;;;;;;;;;14.00;14.00;;;;;-143.47;100.00;63865.75;2096244;28;46186;-64
2023/08/17 03:04:04;;;;;;;;;14.00;13.75;;;;;-143.47;100.00;63865.75;2095726;28;46604;-65
2023/08/17 03:05:05;;;;;;;;;13.00;13.00;;;;;-143.47;100.00;63865.75;2096095;28;46773;-65
2023/08/17 03:06:06;;;;;;;;;16.25;15.75;;;;;-143.47;100.00;63865.75;2096052;28;47184;-65
2023/08/17 03:07:07;;;;;;;;;16.80;15.60;;;;;-143.47;100.00;63865.75;2096227;28;46847;-65
2023/08/17 03:08:08;;;;;;;;;17.00;17.00;;;;;-143.47;100.00;63865.75;2094573;28;47119;-64
2023/08/17 03:09:08;;;;;;;;;17.75;16.00;;;;;-143.47;100.00;63865.75;2088174;28;46855;-64
2023/08/17 03:10:09;;;;;;;;;16.00;16.00;;;;;-143.47;100.00;63865.75;2089338;28;46124;-64
2023/08/17 03:11:09;;;;;;;;;17.50;17.50;;;;;-143.47;100.00;63865.75;2096018;28;46638;-64
2023/08/17 03:12:10;;;;;;;;;14.75;14.50;;;;;-143.47;100.00;63865.75;2095293;28;46971;-64
2023/08/17 03:13:10;;;;;;;;;13.00;13.00;;;;;-143.47;100.00;63865.75;2096261;28;46649;-64
2023/08/17 03:14:10;;;;;;;;;18.00;16.50;;;;;-143.47;100.00;63865.75;2096063;28;46363;-64
2023/08/17 03:15:11;;;;;;;;;15.00;15.00;;;;;-143.47;100.00;63865.75;2096089;28;46239;-64
2023/08/17 03:16:11;;;;;;;;;15.00;15.00;;;;;-143.47;100.00;63865.75;2096226;28;46290;-64
2023/08/17 03:17:11;;;;;;;;;12.00;12.00;;;;;-143.47;100.00;63865.75;2095809;28;46116;-64
2023/08/17 03:18:12;;;;;;;;;13.75;13.75;;;;;-143.47;100.00;63865.75;2090877;28;46190;-64
2023/08/17 03:19:12;;;;;;;;;15.75;15.75;;;;;-143.47;100.00;63865.75;2087638;28;46247;-63
2023/08/17 03:20:12;;;;;;;;;15.00;14.00;;;;;-143.47;100.00;63865.75;2094384;28;45577;-62
2023/08/17 03:21:13;;;;;;;;;12.50;12.00;;;;;-143.47;100.00;63865.75;2099278;28;46760;-63
2023/08/17 03:22:13;;;;;;;;;18.50;17.50;;;;;-143.47;100.00;63865.75;2095605;28;46610;-63
2023/08/17 03:23:13;;;;;;;;;16.50;16.50;;;;;-143.47;100.00;63865.75;2095941;28;46420;-63
2023/08/17 03:24:14;;;;;;;;;13.50;13.50;;;;;-143.47;100.00;63865.75;2095540;28;46384;-63
2023/08/17 03:25:14;;;;;;;;;16.50;15.50;;;;;-143.47;100.00;63865.75;2095625;28;47180;-63
2023/08/17 03:26:15;;;;;;;;;15.50;15.50;;;;;-143.47;100.00;63865.75;2095760;28;46910;-63
2023/08/17 03:27:15;;;;;;;;;14.00;14.00;;;;;-143.47;100.00;63865.75;2086673;28;46817;-65
2023/08/17 03:28:15;;;;;;;;;16.00;15.00;;;;;-143.47;100.00;63865.75;2086588;28;46468;-64
2023/08/17 03:29:16;;;;;;;;;14.00;13.50;;;;;-143.47;100.00;63865.75;2095015;28;46894;-63
2023/08/17 03:30:16;;;;;;;;;13.75;12.50;;;;;-143.47;100.00;63865.75;2096383;28;46227;-64
2023/08/17 03:31:16;;;;;;;;;17.50;16.25;;;;;-143.47;100.00;63865.75;2096606;28;46200;-64
2023/08/17 03:32:17;;;;;;;;;18.00;17.50;;;;;-143.47;100.00;63865.75;2095633;28;46340;-64
2023/08/17 03:33:17;;;;;;;;;15.25;15.25;;;;;-143.47;100.00;63865.75;2096899;28;45598;-64
2023/08/17 03:34:17;;;;;;;;;14.50;14.50;;;;;-143.47;100.00;63865.75;2096072;28;47019;-64
2023/08/17 03:35:18;;;;;;;;;16.00;15.75;;;;;-143.47;100.00;63865.75;2095931;28;46623;-64
2023/08/17 03:36:18;;;;;;;;;18.75;18.75;;;;;-143.47;100.00;63865.75;2096165;28;46604;-64
2023/08/17 03:37:18;;;;;;;;;15.00;15.00;;;;;-143.47;100.00;63865.75;2095919;28;46588;-64
2023/08/17 03:38:19;;;;;;;;;10.00;9.75;;;;;-143.47;100.00;63865.75;2096081;28;46209;-63
2023/08/17 03:39:19;;;;;;;;;14.00;14.00;;;;;-143.47;100.00;63865.75;2102244;28;46146;-63
2023/08/17 03:40:20;;;;;;;;;15.75;15.25;;;;;-143.47;100.00;63865.75;2097608;28;46350;-62
2023/08/17 03:41:23;;;;;;;;;18.25;18.25;;;;;-143.47;100.00;63865.75;2101942;28;46416;-63
2023/08/17 03:42:23;;;;;;;;;15.40;14.40;;;;;-143.47;100.00;63865.75;2097149;28;46545;-62
2023/08/17 03:43:25;;;;;;;;;15.50;15.25;;;;;-143.47;100.00;63865.75;2097299;28;46230;-63
2023/08/17 03:44:25;;;;;;;;;17.40;16.60;;;;;-143.47;100.00;63865.75;2098896;28;46273;-64
2023/08/17 03:45:26;;;;;;;;;15.00;15.00;;;;;-143.47;100.00;63865.75;2103932;27;46895;-64
2023/08/17 03:46:26;;;;;;;;;16.75;15.75;;;;;-143.47;100.00;63865.75;2104751;27;46782;-63
2023/08/17 03:47:26;;;;;;;;;17.75;17.75;;;;;-143.47;100.00;63865.75;2105901;27;46270;-64
2023/08/17 03:48:26;;;;;;;;;18.00;18.00;;;;;-143.47;100.00;63865.75;2105604;27;46258;-63
2023/08/17 03:49:28;;;;;;;;;20.25;20.25;;;;;-143.47;100.00;63865.75;2102412;27;47046;-64
2023/08/17 03:50:28;;;;;;;;;18.60;18.60;;;;;-143.47;100.00;63865.75;2097328;28;47351;-64
2023/08/17 03:51:29;;;;;;;;;15.50;14.75;;;;;-143.47;100.00;63865.75;2103384;28;46392;-64
2023/08/17 03:52:29;;;;;;;;;18.00;16.50;;;;;-143.47;100.00;63865.75;2104461;27;45492;-63
2023/08/17 03:53:29;;;;;;;;;15.00;14.75;;;;;-143.47;100.00;63865.75;2097207;28;46585;-64
2023/08/17 03:54:29;;;;;;;;;19.00;19.00;;;;;-143.47;100.00;63865.75;2097698;28;46860;-64
2023/08/17 03:55:30;;;;;;;;;16.75;13.75;;;;;-143.47;100.00;63865.75;2097455;28;46156;-63
2023/08/17 03:56:30;;;;;;;;;17.50;16.50;;;;;-143.47;100.00;63865.75;2105316;28;46478;-63
2023/08/17 03:57:31;;;;;;;;;20.50;19.50;;;;;-143.47;100.00;63865.75;2102251;27;46206;-64
2023/08/17 03:58:34;;;;;;;;;16.75;16.75;;;;;-143.47;100.00;63865.75;2096890;28;46658;-64
2023/08/17 03:59:34;;;;;;;;;15.80;15.80;;;;;-143.47;100.00;63865.75;2097315;28;46358;-64
2023/08/17 04:00:35;;;;;;;;;19.75;19.00;;;;;-143.47;100.00;63865.75;2099222;28;46309;-64
2023/08/17 04:01:35;;;;;;;;;18.25;18.25;;;;;-143.47;100.00;63865.75;2097075;28;47076;-64
2023/08/17 04:02:35;;;;;;;;;17.00;16.25;;;;;-143.47;100.00;63865.75;2096961;28;46411;-64
2023/08/17 04:03:36;;;;;;;;;19.50;18.50;;;;;-143.47;100.00;63865.75;2098052;28;46459;-64
2023/08/17 04:04:36;;;;;;;;;19.00;16.75;;;;;-143.47;100.00;63865.75;2097384;27;46166;-65
2023/08/17 04:05:36;;;;;;;;;16.25;16.25;;;;;-143.47;100.00;63865.75;2097200;28;46490;-65
2023/08/17 04:06:39;;;;;;;;;16.25;16.25;;;;;-143.47;100.00;63865.75;2097277;28;46283;-63
2023/08/17 04:07:39;;;;;;;;;17.80;16.80;;;;;-143.47;100.00;63865.75;2096502;28;47047;-63
2023/08/17 04:08:39;;;;;;;;;19.75;19.75;;;;;-143.47;100.00;63865.75;2090586;28;46643;-63
2023/08/17 04:09:43;;;;;;;;;17.50;16.50;;;;;-143.47;100.00;63865.75;2105084;28;46903;-63
2023/08/17 04:10:44;;;;;;;;;17.80;17.80;;;;;-143.47;100.00;63865.75;2105071;27;46746;-63
2023/08/17 04:11:44;;;;;;;;;17.50;17.00;;;;;-143.47;100.00;63865.75;2104534;28;46360;-63
2023/08/17 04:12:44;;;;;;;;;14.25;13.25;;;;;-143.47;100.00;63865.75;2105631;28;46752;-63
2023/08/17 04:13:45;;;;;;;;;17.00;16.00;;;;;-143.47;100.00;63865.75;2100900;27;47013;-64
2023/08/17 04:14:45;;;;;;;;;18.50;18.50;;;;;-143.47;100.00;63865.75;2097647;28;46675;-63
2023/08/17 04:15:45;;;;;;;;;17.25;16.50;;;;;-143.47;100.00;63865.75;2104890;28;46612;-64
2023/08/17 04:16:46;;;;;;;;;18.50;18.25;;;;;-143.47;100.00;63865.75;2104985;27;46014;-64
2023/08/17 04:17:46;;;;;;;;;18.75;18.25;;;;;-143.47;100.00;63865.75;2098547;27;46977;-64
2023/08/17 04:18:46;;;;;;;;;18.00;18.00;;;;;-143.47;100.00;63865.75;2102924;28;46666;-64
2023/08/17 04:19:47;;;;;;;;;17.00;16.50;;;;;-143.47;100.00;63865.75;2105107;27;46227;-64
2023/08/17 04:20:47;;;;;;;;;19.50;19.00;;;;;-143.47;100.00;63865.75;2099350;27;46969;-64
2023/08/17 04:21:47;;;;;;;;;19.50;19.00;;;;;-143.47;100.00;63865.75;2100747;28;46985;-64
2023/08/17 04:22:48;;;;;;;;;18.50;18.50;;;;;-143.47;100.00;63865.75;2105233;28;46268;-63
2023/08/17 04:23:48;;;;;;;;;17.00;17.00;;;;;-143.47;100.00;63865.75;2104319;28;46685;-63
2023/08/17 04:24:48;;;;;;;;;17.75;17.50;;;;;-143.47;100.00;63865.75;2103177;27;46814;-63
2023/08/17 04:25:49;;;;;;;;;19.00;17.50;;;;;-143.47;100.00;63865.75;2097337;28;46845;-63
2023/08/17 04:26:49;;;;;;;;;20.25;19.25;;;;;-143.47;100.00;63865.75;2102858;28;46281;-63
2023/08/17 04:27:50;;;;;;;;;17.00;16.00;;;;;-143.47;100.00;63865.75;2104921;27;46802;-64
2023/08/17 04:28:50;;;;;;;;;17.25;17.00;;;;;-143.47;100.00;63865.75;2097123;27;46625;-63
2023/08/17 04:29:50;;;;;;;;;14.25;14.25;;;;;-143.47;100.00;63865.75;2097438;28;46360;-65
2023/08/17 04:30:51;;;;;;;;;22.00;22.00;;;;;-143.47;100.00;63865.75;2096785;28;46544;-64
2023/08/17 04:31:51;;;;;;;;;19.75;18.25;;;;;-143.47;100.00;63865.75;2096882;28;46393;-65
2023/08/17 04:32:52;;;;;;;;;17.50;17.50;;;;;-143.47;100.00;63865.75;2097683;28;46774;-62